Time;durP1;ratioP1;P1;durP2;ratioP2;P2;SDS_P1;SDS_P2;PMS_P1;PMS_P2;Temp;Humidity;BMP_temperature;BMP_pressure;BME280_temperature;BME280_humidity;BME280_pressure;Samples;Min_cycle;Max_cycle;Signal;HPM_P1;HPM_P2
2022/11/06 00:00:41;;;;;;;25.73;13.57;;;;;;;2.93;100.00;96689.56;5020693;28;20033;-74
2022/11/06 00:03:08;;;;;;;25.37;13.93;;;;;;;2.95;100.00;96695.50;5033560;28;20036;-73
2022/11/06 00:08:30;;;;;;;22.00;13.47;;;;;;;2.87;100.00;96689.13;5020409;28;20041;-73
2022/11/06 00:10:56;;;;;;;24.40;15.00;;;;;;;2.96;100.00;96691.13;5035245;28;20080;-74
2022/11/06 00:13:22;;;;;;;22.30;13.33;;;;;;;2.97;100.00;96688.44;5036903;28;20028;-74
2022/11/06 00:15:48;;;;;;;21.47;13.77;;;;;;;2.97;100.00;96687.59;5045370;28;20036;-74
2022/11/06 00:18:14;;;;;;;21.13;13.27;;;;;;;2.97;100.00;96685.81;5039696;28;20513;-74
2022/11/06 00:20:39;;;;;;;21.43;13.20;;;;;;;2.95;100.00;96679.91;5025697;28;20087;-74
2022/11/06 00:23:05;;;;;;;21.33;11.83;;;;;;;2.94;100.00;96682.59;5033059;28;20129;-73
2022/11/06 00:25:31;;;;;;;22.47;12.50;;;;;;;3.00;100.00;96683.03;5027099;28;20040;-73
2022/11/06 00:27:56;;;;;;;22.63;12.73;;;;;;;3.00;100.00;96677.84;5027282;28;20149;-74
2022/11/06 00:30:24;;;;;;;22.17;13.10;;;;;;;2.94;100.00;96677.41;5021243;28;20075;-74
2022/11/06 00:32:49;;;;;;;19.13;12.30;;;;;;;2.89;100.00;96672.53;5035558;28;20040;-73
2022/11/06 00:35:15;;;;;;;22.97;13.30;;;;;;;2.84;100.00;96664.19;5028265;28;20025;-73
2022/11/06 00:37:41;;;;;;;22.10;13.53;;;;;;;2.82;100.00;96663.47;5029709;28;20083;-74
2022/11/06 00:40:07;;;;;;;21.50;13.33;;;;;;;2.78;100.00;96660.25;5031820;28;20116;-73
2022/11/06 00:42:33;;;;;;;24.90;13.63;;;;;;;2.92;100.00;96658.47;5014501;28;20037;-75
2022/11/06 00:44:58;;;;;;;26.47;14.43;;;;;;;2.85;100.00;96663.28;5043299;28;20036;-74
2022/11/06 00:47:24;;;;;;;25.37;13.23;;;;;;;2.90;100.00;96655.16;5031577;28;20029;-76
2022/11/06 00:49:50;;;;;;;23.27;13.77;;;;;;;2.92;100.00;96659.34;5030985;28;20061;-74
2022/11/06 00:52:16;;;;;;;24.60;12.73;;;;;;;2.99;100.00;96658.00;5030735;28;20036;-74
2022/11/06 00:54:41;;;;;;;24.43;13.20;;;;;;;2.99;100.00;96664.97;5031133;28;20025;-74
2022/11/06 00:57:07;;;;;;;22.13;11.20;;;;;;;2.94;100.00;96667.00;5035249;28;20048;-74
2022/11/06 00:59:32;;;;;;;21.63;12.10;;;;;;;2.98;100.00;96668.47;5028991;28;20041;-75
2022/11/06 01:01:58;;;;;;;22.07;12.37;;;;;;;3.01;100.00;96660.47;5031522;28;20036;-74
2022/11/06 01:04:24;;;;;;;22.63;12.93;;;;;;;2.97;100.00;96653.81;5029025;28;20075;-74
2022/11/06 01:06:52;;;;;;;19.87;12.03;;;;;;;2.98;100.00;96656.31;5035261;28;20496;-73
2022/11/06 01:09:21;;;;;;;23.23;11.70;;;;;;;3.03;100.00;96662.03;5040740;28;20056;-74
2022/11/06 01:11:49;;;;;;;18.37;11.17;;;;;;;2.94;100.00;96661.81;5036277;28;20123;-73
2022/11/06 01:14:17;;;;;;;21.90;11.43;;;;;;;2.97;100.00;96659.84;5030822;28;20413;-73
2022/11/06 01:16:43;;;;;;;16.47;11.43;;;;;;;2.92;100.00;96661.94;5044925;28;20574;-73
2022/11/06 01:19:11;;;;;;;15.10;10.10;;;;;;;2.92;100.00;96659.34;5034555;28;20025;-74
2022/11/06 01:21:39;;;;;;;19.10;10.80;;;;;;;2.91;100.00;96669.81;5008616;28;20491;-74
2022/11/06 01:24:08;;;;;;;20.10;12.10;;;;;;;2.95;100.00;96673.88;5023215;28;20032;-74
2022/11/06 01:26:35;;;;;;;19.40;11.17;;;;;;;2.98;100.00;96669.28;5029597;28;20033;-74
2022/11/06 01:29:01;;;;;;;24.40;11.70;;;;;;;2.96;100.00;96675.56;5024443;28;20204;-73
2022/11/06 01:31:29;;;;;;;19.20;11.10;;;;;;;2.98;100.00;96669.28;5026874;28;20029;-74
2022/11/06 01:33:56;;;;;;;18.23;11.30;;;;;;;2.98;100.00;96669.28;5026532;28;20041;-73
2022/11/06 01:36:23;;;;;;;18.77;11.17;;;;;;;3.02;100.00;96663.00;5026255;28;20060;-76
2022/11/06 01:38:50;;;;;;;17.73;10.37;;;;;;;2.98;100.00;96655.47;5033470;28;20029;-74
2022/11/06 01:41:37;;;;;;;17.83;11.13;;;;;;;2.95;100.00;96659.13;5026566;28;20021;-74
2022/11/06 01:44:24;;;;;;;16.80;10.27;;;;;;;2.90;100.00;96658.59;5018625;28;20065;-73
2022/11/06 01:46:50;;;;;;;19.20;11.13;;;;;;;2.90;100.00;96656.00;5034816;28;20071;-74
2022/11/06 01:49:16;;;;;;;18.20;11.33;;;;;;;2.93;100.00;96660.16;5026223;28;20665;-74
2022/11/06 01:51:48;;;;;;;19.43;11.90;;;;;;;2.86;100.00;96657.13;5026914;28;20025;-74
2022/11/06 01:54:15;;;;;;;18.93;11.23;;;;;;;2.85;100.00;96655.50;5023125;28;20086;-74
2022/11/06 01:56:42;;;;;;;21.37;12.00;;;;;;;2.74;100.00;96650.16;5027909;28;20057;-73
2022/11/06 01:59:12;;;;;;;18.67;12.50;;;;;;;2.76;100.00;96658.69;5032201;28;20024;-74
2022/11/06 02:01:37;;;;;;;18.90;12.47;;;;;;;2.79;100.00;96658.47;5024008;28;20116;-74
2022/11/06 02:04:27;;;;;;;17.67;11.07;;;;;;;2.78;100.00;96656.78;5026402;28;20128;-73
2022/11/06 02:06:54;;;;;;;20.60;11.43;;;;;;;2.81;100.00;96652.22;5027413;28;20116;-76
2022/11/06 02:09:20;;;;;;;16.60;10.33;;;;;;;2.82;100.00;96655.69;5027711;28;20044;-74
2022/11/06 02:12:12;;;;;;;19.97;12.03;;;;;;;2.76;100.00;96649.13;5027962;28;20104;-74
2022/11/06 02:14:40;;;;;;;19.67;12.43;;;;;;;2.67;100.00;96643.69;5028558;28;20049;-74
2022/11/06 02:17:54;;;;;;;19.77;12.03;;;;;;;2.56;100.00;96639.22;5026247;28;20017;-76
2022/11/06 02:20:47;;;;;;;19.88;12.27;;;;;;;2.53;100.00;96642.81;5028359;28;20049;-74
2022/11/06 02:23:28;;;;;;;14.53;8.87;;;;;;;2.57;100.00;96633.06;5020513;28;20030;-73
2022/11/06 02:26:06;;;;;;;19.67;12.13;;;;;;;2.58;100.00;96638.19;5026459;28;20525;-73
2022/11/06 02:28:40;;;;;;;19.50;11.83;;;;;;;2.58;100.00;96640.78;5022238;28;20044;-73
2022/11/06 02:31:12;;;;;;;19.53;10.87;;;;;;;2.63;100.00;96639.63;5019835;28;20021;-73
2022/11/06 02:33:47;;;;;;;20.10;11.53;;;;;;;2.60;100.00;96643.25;5009604;28;20505;-73
2022/11/06 02:36:22;;;;;;;20.70;10.97;;;;;;;2.67;100.00;96639.31;5023646;28;20056;-74
2022/11/06 02:38:56;;;;;;;18.60;10.80;;;;;;;2.68;100.00;96643.56;5025995;28;20030;-74
2022/11/06 02:41:28;;;;;;;17.67;10.67;;;;;;;2.59;100.00;96639.84;5025421;28;20112;-73
2022/11/06 02:43:56;;;;;;;17.67;10.47;;;;;;;2.59;100.00;96637.25;5027058;28;20072;-73
2022/11/06 02:46:32;;;;;;;17.83;9.80;;;;;;;2.60;100.00;96643.25;5008536;28;20033;-75
2022/11/06 02:49:11;;;;;;;16.17;9.57;;;;;;;2.57;100.00;96639.09;5020347;28;20068;-74
2022/11/06 02:51:45;;;;;;;15.20;9.87;;;;;;;2.60;100.00;96632.88;5025469;28;20513;-73
2022/11/06 02:54:13;;;;;;;18.57;10.27;;;;;;;2.62;100.00;96635.38;5028049;28;20037;-76
2022/11/06 02:56:43;;;;;;;17.10;9.30;;;;;;;2.53;100.00;96619.47;5029787;28;20116;-73
2022/11/06 02:59:25;;;;;;;15.77;9.77;;;;;;;2.50;100.00;96618.84;5018932;28;20059;-74
2022/11/06 03:01:58;;;;;;;18.27;9.57;;;;;;;2.45;100.00;96615.69;5024245;28;20057;-73
2022/11/06 03:04:36;;;;;;;16.08;9.80;;;;;;;2.35;100.00;96603.34;5028570;28;20044;-73
2022/11/06 03:07:15;;;;;;;16.87;10.50;;;;;;;2.40;100.00;96603.03;5024501;28;20033;-73
2022/11/06 03:09:42;;;;;;;17.07;10.87;;;;;;;2.46;100.00;96600.03;5027113;28;20130;-73
2022/11/06 03:12:16;;;;;;;19.40;10.83;;;;;;;2.42;100.00;96598.56;5030857;28;20079;-74
2022/11/06 03:14:52;;;;;;;16.30;10.47;;;;;;;2.39;100.00;96603.13;5026521;28;20084;-73
2022/11/06 03:17:37;;;;;;;19.27;10.47;;;;;;;2.40;100.00;96610.81;5015847;28;20097;-76
2022/11/06 03:20:31;;;;;;;17.83;11.17;;;;;;;2.34;100.00;96600.81;5033492;28;20378;-74
2022/11/06 03:23:02;;;;;;;;;;;;;;;2.33;100.00;96600.00;5027927;28;20041;-73
2022/11/06 03:25:34;;;;;;;17.13;9.53;;;;;;;2.26;100.00;96590.94;5033535;28;19917;-73
2022/11/06 03:28:24;;;;;;;14.73;9.43;;;;;;;2.28;100.00;96593.44;5029393;28;20521;-73
2022/11/06 03:30:54;;;;;;;17.67;9.93;;;;;;;2.27;100.00;96584.81;5029216;28;20398;-73
2022/11/06 03:33:20;;;;;;;18.70;10.93;;;;;;;2.27;100.00;96584.00;5027781;28;20131;-73
2022/11/06 03:36:00;;;;;;;17.47;10.37;;;;;;;2.29;100.00;96584.72;5030100;28;20052;-73
2022/11/06 03:38:49;;;;;;;20.97;11.63;;;;;;;2.32;100.00;96581.94;5025525;28;20029;-74
2022/11/06 03:41:37;;;;;;;21.13;11.47;;;;;;;2.33;100.00;96573.22;5035229;28;20483;-73
2022/11/06 03:44:05;;;;;;;21.50;11.03;;;;;;;2.33;100.00;96570.63;5033015;28;20522;-73
2022/11/06 03:46:36;;;;;;;18.03;10.80;;;;;;;2.31;100.00;96562.09;5032784;28;20083;-73
2022/11/06 03:49:05;;;;;;;22.03;12.47;;;;;;;2.28;100.00;96551.91;5023902;28;20051;-73
2022/11/06 03:51:52;;;;;;;17.10;10.23;;;;;;;2.26;100.00;96552.03;5031383;28;20095;-74
2022/11/06 03:54:33;;;;;;;18.37;10.87;;;;;;;2.28;100.00;96546.72;5028428;28;20116;-74
2022/11/06 03:57:40;;;;;;;21.50;12.00;;;;;;;2.27;100.00;96542.47;5040466;28;20589;-73
2022/11/06 04:00:07;;;;;;;22.93;11.47;;;;;;;2.24;100.00;96553.03;5002332;28;20041;-73
2022/11/06 04:02:41;;;;;;;17.13;9.83;;;;;;;2.21;100.00;96538.50;5021194;28;20037;-73
2022/11/06 04:05:22;;;;;;;18.10;10.33;;;;;;;2.18;100.00;96545.66;5023472;28;20402;-73
2022/11/06 04:16:14;;;;;;;17.63;10.90;;;;;;;2.28;100.00;96559.69;5028685;28;20037;-73
2022/11/06 04:18:40;;;;;;;18.33;10.57;;;;;;;2.24;100.00;96563.44;5028507;28;20163;-74
2022/11/06 04:21:26;;;;;;;15.80;9.83;;;;;;;2.19;100.00;96550.75;5029511;28;20108;-74
2022/11/06 04:26:53;;;;;;;23.00;10.60;;;;;;;2.12;100.00;96552.94;5027775;28;20477;-74
2022/11/06 04:29:36;;;;;;;18.33;10.60;;;;;;;2.11;100.00;96547.81;5023459;28;20112;-73
2022/11/06 04:32:15;;;;;;;16.73;9.93;;;;;;;2.08;100.00;96533.31;5028532;28;20029;-73
2022/11/06 04:34:59;;;;;;;18.83;10.23;;;;;;;2.04;100.00;96534.41;5029238;28;20099;-75
2022/11/06 04:37:47;;;;;;;17.33;9.37;;;;;;;2.00;100.00;96532.97;5033110;28;20764;-74
2022/11/06 04:40:36;;;;;;;18.17;10.07;;;;;;;2.03;100.00;96537.13;5015995;28;20541;-73
2022/11/06 04:43:06;;;;;;;17.93;10.37;;;;;;;2.04;100.00;96537.00;5034049;28;20060;-73
2022/11/06 04:45:40;;;;;;;22.13;12.17;;;;;;;2.03;100.00;96535.34;5038838;28;20048;-74
2022/11/06 04:48:07;;;;;;;17.55;10.65;;;;;;;2.03;100.00;96529.34;5037412;28;20033;-72
2022/11/06 04:50:38;;;;;;;18.50;10.83;;;;;;;2.10;100.00;96509.84;5039338;28;20036;-74
2022/11/06 04:53:05;;;;;;;21.40;11.27;;;;;;;2.12;100.00;96508.81;5037583;28;20070;-74
2022/11/06 04:55:31;;;;;;;17.90;8.73;;;;;;;2.15;100.00;96512.97;5028163;28;20044;-73
2022/11/06 04:57:57;;;;;;;22.60;10.03;;;;;;;2.19;100.00;96504.06;5036106;28;20025;-73
2022/11/06 05:00:23;;;;;;;19.00;11.03;;;;;;;2.20;100.00;96504.88;5034652;28;20419;-74
2022/11/06 05:02:49;;;;;;;18.00;10.40;;;;;;;2.18;100.00;96496.38;5028945;28;20041;-73
2022/11/06 05:05:14;;;;;;;21.80;9.27;;;;;;;2.17;100.00;96505.91;5027790;28;20041;-73
2022/11/06 05:07:40;;;;;;;16.43;9.53;;;;;;;2.10;100.00;96500.28;5028865;28;20560;-74
2022/11/06 05:10:06;;;;;;;18.70;11.17;;;;;;;2.25;100.00;96492.47;5020155;28;20021;-73
2022/11/06 05:12:31;;;;;;;16.70;10.20;;;;;;;2.26;100.00;96497.53;5028723;28;20037;-73
2022/11/06 05:14:57;;;;;;;17.13;9.97;;;;;;;2.28;100.00;96489.63;5027983;28;20502;-74
2022/11/06 05:17:23;;;;;;;20.40;11.30;;;;;;;2.30;100.00;96480.00;5027357;28;20032;-74
2022/11/06 05:19:48;;;;;;;22.10;10.57;;;;;;;2.34;100.00;96479.66;5040807;28;20454;-73
2022/11/06 05:24:59;;;;;;;17.17;10.73;;;;;;;2.32;100.00;96478.13;5028448;28;20131;-73
2022/11/06 05:27:24;;;;;;;26.57;14.27;;;;;;;2.30;100.00;96467.84;5028415;28;20038;-73
2022/11/06 05:29:50;;;;;;;38.33;20.47;;;;;;;2.31;100.00;96458.28;5027211;28;20083;-73
2022/11/06 05:32:15;;;;;;;36.43;20.93;;;;;;;2.29;100.00;96457.56;5025329;28;20091;-74
2022/11/06 05:34:41;;;;;;;67.87;33.27;;;;;;;2.30;100.00;96456.63;5028296;28;20403;-73
2022/11/06 05:37:07;;;;;;;42.97;21.73;;;;;;;2.30;100.00;96456.63;5027718;28;20368;-73
2022/11/06 05:39:32;;;;;;;37.43;21.00;;;;;;;2.26;100.00;96460.38;5027626;28;20118;-73
2022/11/06 05:41:58;;;;;;;22.67;14.50;;;;;;;2.25;100.00;96462.16;5025390;28;20026;-74
2022/11/06 05:44:24;;;;;;;24.63;14.77;;;;;;;2.25;100.00;96458.72;5028486;28;20040;-73
2022/11/06 05:46:49;;;;;;;28.03;16.17;;;;;;;2.23;100.00;96464.00;5028056;28;20026;-73
2022/11/06 05:49:16;;;;;;;27.80;16.17;;;;;;;2.22;100.00;96466.72;5026852;28;20033;-73
2022/11/06 05:51:42;;;;;;;25.50;14.90;;;;;;;2.24;100.00;96477.78;5026771;28;20033;-73
2022/11/06 05:54:07;;;;;;;25.13;15.93;;;;;;;2.18;100.00;96485.97;5026665;28;20435;-73
2022/11/06 05:56:33;;;;;;;22.43;14.63;;;;;;;2.17;100.00;96481.72;5043272;28;20482;-73
2022/11/06 05:58:59;;;;;;;25.60;15.83;;;;;;;2.22;100.00;96479.69;5028079;28;20396;-74
2022/11/06 06:01:24;;;;;;;28.60;16.43;;;;;;;2.24;100.00;96490.78;5026232;28;20045;-73
2022/11/06 06:03:50;;;;;;;20.77;12.70;;;;;;;2.12;100.00;96492.44;5025653;28;20091;-73
2022/11/06 06:06:16;;;;;;;20.80;12.73;;;;;;;2.02;100.00;96497.38;5027384;28;20033;-74
2022/11/06 06:08:41;;;;;;;20.33;11.27;;;;;;;2.00;100.00;96503.59;5025995;28;20636;-73
2022/11/06 06:11:07;;;;;;;17.90;11.07;;;;;;;1.89;100.00;96512.09;5026884;28;20441;-74
2022/11/06 06:13:36;;;;;;;20.27;11.27;;;;;;;1.85;100.00;96513.22;5027457;28;20083;-73
2022/11/06 06:16:02;;;;;;;18.37;10.63;;;;;;;1.84;100.00;96514.13;5028790;28;20049;-74
2022/11/06 06:18:28;;;;;;;20.00;10.43;;;;;;;1.82;100.00;96519.41;5024932;28;20033;-74
2022/11/06 06:20:53;;;;;;;17.00;10.17;;;;;;;1.85;100.00;96518.41;5027025;28;20430;-74
2022/11/06 06:23:19;;;;;;;24.73;14.17;;;;;;;1.76;100.00;96518.97;5028299;28;20048;-73
2022/11/06 06:25:44;;;;;;;23.00;14.87;;;;;;;1.77;100.00;96521.47;5024872;28;20033;-73
2022/11/06 06:28:10;;;;;;;26.37;14.67;;;;;;;1.80;100.00;96510.91;5029729;28;20029;-73
2022/11/06 06:30:36;;;;;;;21.33;14.30;;;;;;;1.83;100.00;96515.06;5031442;28;20061;-74
2022/11/06 06:33:06;;;;;;;25.17;14.57;;;;;;;1.84;100.00;96520.13;5026741;28;20104;-73
2022/11/06 06:35:32;;;;;;;21.50;12.43;;;;;;;1.89;100.00;96512.09;5030678;28;20034;-73
2022/11/06 06:37:58;;;;;;;21.70;13.47;;;;;;;1.92;100.00;96498.91;5026072;28;20036;-75
2022/11/06 06:40:25;;;;;;;22.63;11.63;;;;;;;1.87;100.00;96493.19;5026954;28;20038;-73
2022/11/06 06:42:53;;;;;;;21.70;12.27;;;;;;;1.89;100.00;96499.13;5034518;28;20040;-74
2022/11/06 06:45:19;;;;;;;19.73;12.23;;;;;;;1.84;100.00;96509.75;5021227;28;20030;-73
2022/11/06 06:47:45;;;;;;;19.47;11.90;;;;;;;1.89;100.00;96512.09;5033352;28;20415;-73
2022/11/06 06:50:10;;;;;;;20.13;11.57;;;;;;;1.86;100.00;96507.09;5028478;28;20037;-73
2022/11/06 06:52:36;;;;;;;23.83;12.63;;;;;;;1.87;100.00;96498.38;5038726;28;20037;-76
2022/11/06 06:55:02;;;;;;;18.77;11.03;;;;;;;1.92;100.00;96496.31;5025587;28;20083;-76
2022/11/06 06:57:27;;;;;;;19.57;11.77;;;;;;;2.01;100.00;96500.91;5026999;28;20542;-73
2022/11/06 06:59:53;;;;;;;21.77;13.20;;;;;;;2.00;100.00;96509.59;5021750;28;20379;-73
2022/11/06 07:02:19;;;;;;;20.93;11.40;;;;;;;2.03;100.00;96514.59;5012442;28;20056;-73
2022/11/06 07:04:44;;;;;;;22.53;11.33;;;;;;;2.11;100.00;96514.09;5005106;28;20033;-72
2022/11/06 07:07:10;;;;;;;20.47;10.63;;;;;;;2.36;100.00;96514.16;4993550;28;20030;-73
2022/11/06 07:09:36;;;;;;;22.70;13.03;;;;;;;2.46;100.00;96522.16;4999692;28;20029;-73
2022/11/06 07:12:02;;;;;;;17.17;10.57;;;;;;;2.65;100.00;96526.97;5007482;28;20028;-72
2022/11/06 07:14:28;;;;;;;19.50;10.23;;;;;;;2.84;100.00;96529.13;5017583;28;20037;-74
2022/11/06 07:16:53;;;;;;;18.90;9.80;;;;;;;2.92;100.00;96524.25;5033889;28;20084;-73
2022/11/06 07:19:19;;;;;;;25.70;12.70;;;;;;;3.29;100.00;96524.31;5030990;28;20124;-74
2022/11/06 07:21:45;;;;;;;16.97;10.43;;;;;;;3.46;100.00;96510.13;5036485;28;20036;-73
2022/11/06 07:24:10;;;;;;;20.87;9.53;;;;;;;3.61;100.00;96505.59;5042002;28;20021;-73
2022/11/06 07:26:36;;;;;;;16.07;9.90;;;;;;;4.08;100.00;96511.72;5032703;28;20498;-73
2022/11/06 07:29:05;;;;;;;16.47;10.50;;;;;;;4.17;100.00;96498.03;5033173;28;20037;-73
2022/11/06 07:31:31;;;;;;;14.53;8.53;;;;;;;4.30;100.00;96493.59;5035465;28;20029;-73
2022/11/06 07:33:56;;;;;;;15.97;9.33;;;;;;;4.40;100.00;96481.53;5033673;28;20033;-73
2022/11/06 07:36:22;;;;;;;15.60;9.03;;;;;;;4.84;100.00;96476.50;5036300;28;20073;-73
2022/11/06 07:38:48;;;;;;;18.87;10.93;;;;;;;5.06;100.00;96470.44;5032499;28;20060;-73
2022/11/06 07:41:14;;;;;;;29.03;14.83;;;;;;;5.06;100.00;96465.25;5037245;28;20025;-73
2022/11/06 07:43:40;;;;;;;21.07;12.70;;;;;;;5.44;100.00;96450.03;5035756;28;20071;-74
2022/11/06 07:46:09;;;;;;;21.13;11.70;;;;;;;5.31;100.00;96438.91;5026670;28;20494;-74
2022/11/06 07:48:36;;;;;;;17.77;10.37;;;;;;;5.65;100.00;96431.00;5032278;28;20050;-74
2022/11/06 07:51:05;;;;;;;14.10;9.60;;;;;;;6.06;100.00;96425.03;5033633;28;20033;-74
2022/11/06 07:53:31;;;;;;;20.27;12.13;;;;;;;6.26;100.00;96412.94;5009619;28;20056;-74
2022/11/06 07:55:57;;;;;;;12.77;7.50;;;;;;;5.96;100.00;96413.69;5024239;28;20038;-73
2022/11/06 07:58:24;;;;;;;11.90;7.40;;;;;;;6.57;100.00;96392.06;5024102;28;20068;-74
2022/11/06 08:00:54;;;;;;;11.70;7.90;;;;;;;6.72;100.00;96382.91;5022947;28;20036;-74
2022/11/06 08:03:21;;;;;;;16.73;7.43;;;;;;;6.22;100.00;96382.81;5031168;28;20033;-74
2022/11/06 08:05:47;;;;;;;12.47;7.67;;;;;;;6.20;100.00;96383.88;5028533;28;20044;-74
2022/11/06 08:08:13;;;;;;;13.80;7.90;;;;;;;6.35;100.00;96387.84;5032541;28;20037;-74
2022/11/06 08:10:39;;;;;;;12.80;7.87;;;;;;;6.01;100.00;96388.03;5033152;28;20048;-74
2022/11/06 08:13:06;;;;;;;13.47;7.73;;;;;;;6.32;100.00;96388.09;5028653;28;20116;-74
2022/11/06 08:15:32;;;;;;;12.47;7.50;;;;;;;6.27;100.00;96377.19;5012170;28;20423;-74
2022/11/06 08:17:59;;;;;;;13.20;7.93;;;;;;;5.89;100.00;96378.56;5027217;28;20513;-74
2022/11/06 08:20:27;;;;;;;12.93;7.97;;;;;;;6.57;100.00;96369.41;5028454;28;20037;-74
2022/11/06 08:22:58;;;;;;;13.87;8.27;;;;;;;6.23;100.00;96355.72;5005982;28;20037;-74
2022/11/06 08:25:23;;;;;;;13.43;8.23;;;;;;;5.95;100.00;96338.13;5003067;28;20037;-73
2022/11/06 08:27:49;;;;;;;15.27;8.17;;;;;;;6.10;100.00;96339.44;5002542;28;21603;-73
2022/11/06 08:30:15;;;;;;;14.03;7.43;;;;;;;6.48;100.00;96335.38;5002295;28;20147;-74
2022/11/06 08:32:41;;;;;;;13.93;7.90;;;;;;;6.57;100.00;96329.34;4989433;28;20037;-74
2022/11/06 08:35:07;;;;;;;12.10;7.67;;;;;;;6.65;100.00;96334.75;5029635;28;20064;-74
2022/11/06 08:37:33;;;;;;;12.27;7.33;;;;;;;6.63;100.00;96328.00;5021356;28;20108;-75
2022/11/06 08:39:59;;;;;;;13.33;7.57;;;;;;;6.95;100.00;96327.81;5028156;28;20029;-75
2022/11/06 08:42:24;;;;;;;12.17;7.30;;;;;;;6.97;100.00;96328.50;5028236;28;20108;-75
2022/11/06 08:44:50;;;;;;;11.83;7.07;;;;;;;6.96;100.00;96319.00;5029983;28;20034;-75
2022/11/06 08:47:16;;;;;;;12.07;7.33;;;;;;;7.15;100.00;96313.00;5027370;28;20490;-75
2022/11/06 08:49:41;;;;;;;12.53;7.13;;;;;;;7.52;100.00;96305.28;5025861;28;20104;-75
2022/11/06 08:52:07;;;;;;;11.23;7.23;;;;;;;7.52;100.00;96300.88;5025735;28;20033;-74
2022/11/06 08:54:32;;;;;;;14.80;6.40;;;;;;;7.78;100.00;96289.84;5025689;28;20038;-75
2022/11/06 08:56:59;;;;;;;10.97;6.37;;;;;;;8.01;100.00;96285.09;5026236;28;20075;-75
2022/11/06 08:59:24;;;;;;;14.87;7.40;;;;;;;7.63;100.00;96280.75;5026941;28;20116;-75
2022/11/06 09:01:50;;;;;;;13.47;6.63;;;;;;;7.29;100.00;96287.25;5009433;28;20152;-75
2022/11/06 09:04:16;;;;;;;13.37;8.00;;;;;;;7.39;100.00;96275.97;5028183;28;20040;-75
2022/11/06 09:06:41;;;;;;;11.83;7.73;;;;;;;7.40;100.00;96272.38;5024213;28;20034;-75
2022/11/06 09:09:07;;;;;;;11.87;7.33;;;;;;;7.03;100.00;96273.88;5023572;28;20049;-75
2022/11/06 09:11:32;;;;;;;12.37;7.10;;;;;;;7.73;100.00;96266.69;5009579;28;20025;-75
2022/11/06 09:13:58;;;;;;;13.47;8.03;;;;;;;7.53;100.00;96259.84;5026908;28;20034;-75
2022/11/06 09:16:25;;;;;;;11.20;7.80;;;;;;;7.68;100.00;96258.44;5026782;28;20146;-74
2022/11/06 09:18:54;;;;;;;12.60;7.47;;;;;;;7.52;100.00;96268.66;5027661;28;20105;-75
2022/11/06 09:21:20;;;;;;;13.23;8.17;;;;;;;8.55;100.00;96265.22;5026093;28;20104;-75
2022/11/06 09:23:47;;;;;;;12.47;7.80;;;;;;;8.16;100.00;96259.28;5028341;28;20034;-74
2022/11/06 09:26:13;;;;;;;12.13;7.63;;;;;;;7.76;100.00;96269.03;5015606;28;20034;-75
2022/11/06 09:28:39;;;;;;;12.97;7.97;;;;;;;7.47;100.00;96274.28;5020843;28;20399;-75
2022/11/06 09:31:06;;;;;;;10.83;6.90;;;;;;;7.97;100.00;96273.25;5024389;28;20029;-75
2022/11/06 09:33:32;;;;;;;10.13;6.80;;;;;;;7.24;100.00;96270.31;5017979;28;20136;-75
2022/11/06 09:35:58;;;;;;;11.33;7.10;;;;;;;7.05;100.00;96271.97;4994670;28;20394;-74
2022/11/06 09:38:23;;;;;;;9.67;5.77;;;;;;;6.91;100.00;96267.13;4994626;28;20033;-75
2022/11/06 09:40:57;;;;;;;10.93;6.73;;;;;;;7.23;100.00;96260.81;5026324;28;20546;-75
2022/11/06 09:43:46;;;;;;;10.25;6.22;;;;;;;6.79;100.00;96253.34;5022324;28;20057;-75
2022/11/06 09:46:28;;;;;;;10.80;6.37;;;;;;;7.74;100.00;96257.03;5025057;28;20506;-75
2022/11/06 09:49:02;;;;;;;9.23;5.13;;;;;;;7.84;100.00;96252.59;5024850;28;20037;-75
2022/11/06 09:51:50;;;;;;;12.03;6.80;;;;;;;7.04;100.00;96257.25;5024997;28;20479;-75
2022/11/06 09:54:27;;;;;;;14.57;8.43;;;;;;;7.19;100.00;96249.81;5030416;28;20040;-75
2022/11/06 09:57:02;;;;;;;10.60;6.00;;;;;;;7.23;100.00;96251.19;5029415;28;20102;-73
2022/11/06 09:59:33;;;;;;;9.73;6.23;;;;;;;7.62;100.00;96247.72;5022485;28;20026;-76
2022/11/06 10:02:02;;;;;;;8.77;5.43;;;;;;;8.13;100.00;96247.28;5027323;28;20087;-75
2022/11/06 10:04:48;;;;;;;10.03;6.30;;;;;;;7.87;100.00;96264.59;5026515;28;20044;-75
2022/11/06 10:07:35;;;;;;;11.73;6.63;;;;;;;7.38;100.00;96276.91;5025577;28;20145;-75
2022/11/06 10:10:04;;;;;;;12.23;6.60;;;;;;;7.09;100.00;96269.91;5023840;28;20037;-76
2022/11/06 10:12:51;;;;;;;12.40;6.93;;;;;;;7.90;100.00;96265.13;5025812;28;20040;-76
2022/11/06 10:15:23;;;;;;;10.87;6.63;;;;;;;7.87;100.00;96269.84;5021422;28;20029;-76
2022/11/06 10:18:13;;;;;;;11.00;6.50;;;;;;;8.14;100.00;96258.59;5025747;28;20025;-76
2022/11/06 10:20:50;;;;;;;11.40;6.80;;;;;;;8.50;100.00;96249.09;5028337;28;20565;-76
2022/11/06 10:23:34;;;;;;;12.70;7.03;;;;;;;8.45;100.00;96251.31;5023867;28;20029;-75
2022/11/06 10:26:06;;;;;;;10.33;6.37;;;;;;;8.33;100.00;96268.19;5024687;28;20069;-76
2022/11/06 10:28:47;;;;;;;9.77;6.37;;;;;;;8.33;100.00;96273.41;5026508;28;20079;-76
2022/11/06 10:31:44;;;;;;;10.80;6.10;;;;;;;8.03;100.00;96283.16;5023187;28;20120;-76
2022/11/06 10:34:14;;;;;;;11.00;6.70;;;;;;;8.32;100.00;96283.06;5026814;28;20038;-75
2022/11/06 10:36:40;;;;;;;12.03;7.60;;;;;;;7.92;100.00;96272.88;5020522;28;20506;-74
2022/11/06 10:39:19;;;;;;;10.97;7.43;;;;;;;7.69;100.00;96262.72;5008822;28;20033;-75
2022/11/06 10:42:08;;;;;;;12.37;7.33;;;;;;;7.68;100.00;96258.44;5019840;28;20120;-75
2022/11/06 10:44:58;;;;;;;12.70;7.50;;;;;;;7.51;100.00;96256.53;5024493;28;20763;-75
2022/11/06 10:47:41;;;;;;;11.73;7.47;;;;;;;7.51;100.00;96256.53;5015852;28;20109;-74
2022/11/06 10:50:13;;;;;;;13.70;8.55;;;;;;;7.26;100.00;96252.69;5015050;28;20087;-75
2022/11/06 10:52:59;;;;;;;10.73;6.50;;;;;;;7.35;100.00;96245.81;5018873;28;20041;-75
2022/11/06 10:55:46;;;;;;;11.50;7.30;;;;;;;7.03;100.00;96246.91;4998932;28;20030;-75
2022/11/06 10:58:18;;;;;;;11.03;7.20;;;;;;;7.19;100.00;96249.81;5016397;28;21067;-75
2022/11/06 11:00:44;;;;;;;11.37;7.53;;;;;;;7.23;100.00;96245.94;5031044;28;20104;-75
2022/11/06 11:03:35;;;;;;;9.17;5.67;;;;;;;7.41;100.00;96240.00;5016772;28;20520;-75
2022/11/06 11:06:02;;;;;;;11.73;7.13;;;;;;;7.25;100.00;96240.59;5012333;28;20163;-74
2022/11/06 11:08:48;;;;;;;9.07;6.30;;;;;;;6.88;100.00;96248.28;5019513;28;20022;-75
2022/11/06 11:11:14;;;;;;;11.67;7.47;;;;;;;6.59;100.00;96252.50;5031946;28;20500;-75
2022/11/06 11:13:45;;;;;;;11.00;6.93;;;;;;;6.77;100.00;96244.84;5016229;28;20046;-75
2022/11/06 11:16:18;;;;;;;11.37;7.67;;;;;;;6.93;100.00;96241.66;5033328;28;20036;-75
2022/11/06 11:18:45;;;;;;;11.25;7.70;;;;;;;7.26;100.00;96231.78;4986392;28;20041;-75
2022/11/06 11:21:15;;;;;;;11.30;7.67;;;;;;;7.68;100.00;96224.41;4984352;28;20095;-75
2022/11/06 11:23:41;;;;;;;10.00;6.63;;;;;;;8.19;100.00;96209.22;4985332;28;20541;-75
2022/11/06 11:26:29;;;;;;;10.40;7.47;;;;;;;8.22;100.00;96191.41;4984629;28;20021;-75
2022/11/06 11:29:01;;;;;;;10.70;7.03;;;;;;;8.17;100.00;96175.28;4986582;28;20073;-75
2022/11/06 11:31:30;;;;;;;10.00;6.37;;;;;;;8.63;100.00;96157.81;4987607;28;20033;-75
2022/11/06 11:33:59;;;;;;;10.67;7.13;;;;;;;7.77;100.00;96146.81;5001802;28;20061;-75
2022/11/06 11:36:25;;;;;;;10.30;6.83;;;;;;;8.10;100.00;96136.75;4974116;28;20033;-74
2022/11/06 11:38:51;;;;;;;10.73;6.73;;;;;;;7.85;100.00;96133.03;4983745;28;21256;-75
2022/11/06 11:41:22;;;;;;;10.87;7.30;;;;;;;7.33;100.00;96131.66;4986030;28;20037;-75
2022/11/06 11:44:10;;;;;;;9.87;6.93;;;;;;;7.62;100.00;96122.91;4987465;28;20068;-75
2022/11/06 11:46:46;;;;;;;9.33;5.80;;;;;;;7.46;100.00;96128.75;4993951;28;20580;-76
2022/11/06 11:49:30;;;;;;;8.83;5.73;;;;;;;7.17;100.00;96115.72;5018144;28;20034;-75
2022/11/06 11:51:58;;;;;;;9.63;6.47;;;;;;;7.10;100.00;96106.81;5027341;28;20089;-75
2022/11/06 11:54:27;;;;;;;11.87;7.77;;;;;;;6.83;100.00;96105.75;5019059;28;20029;-76